Archival Weather

Kayes/Dag-Dag

Kayes/Dag-Dag, Mali (GAKD)

Report from: Thursday, September 21, 2023 12:00 AM UTC
Current time: Saturday, June 22, 2024 5:40 AM UTC

Current weather – Weather history – Daily summaries
Weather forecast

Present weatherThunderstorm
Temperature28.0°C (82.4°F)
Heat index33.5°C (92.3°F)
Dew point26.0°C (78.8°F)
Winds 2 kts (1 m/s, 2.3 mph) North-Northwest (340°)
Visibility6.2 mi. (10 km)
Clouds Scattered clouds 2,000 ft. (610 m)
Few clouds with cumulonimbus 3,000 ft. (914 m)
Altimeter29.91 in.Hg (1013 mB)
Relative humidity89 %
Density altitude1,952 ft. (595 m)
Flight conditions Visual Meteorological Conditions
Raw dataGAKD 210000Z 34002KT 9999 TS SCT020 FEW030CB 28/26 Q1013
An error has occurred. This application may no longer respond until reloaded. Reload 🗙